sensor_id;sensor_type;location;lat;lon;timestamp;pressure;altitude;pressure_sealevel;temperature;humidity
45327;BME280;31062;49.678;24.560;2023-03-20T00:01:15;98297.13;;;5.91;68.12
45327;BME280;31062;49.678;24.560;2023-03-20T00:04:02;98165.88;;;4.99;68.03
45327;BME280;31062;49.678;24.560;2023-03-20T00:06:47;98329.28;;;6.04;68.00
45327;BME280;31062;49.678;24.560;2023-03-20T00:09:33;98132.69;;;4.69;67.83
45327;BME280;31062;49.678;24.560;2023-03-20T00:12:22;98331.16;;;6.09;68.15
45327;BME280;31062;49.678;24.560;2023-03-20T00:15:23;98337.41;;;6.09;67.78
45327;BME280;31062;49.678;24.560;2023-03-20T00:18:15;98330.97;;;6.07;67.70
45327;BME280;31062;49.678;24.560;2023-03-20T00:21:03;98326.91;;;6.00;67.85
45327;BME280;31062;49.678;24.560;2023-03-20T00:23:48;98320.28;;;6.03;68.20
45327;BME280;31062;49.678;24.560;2023-03-20T00:26:53;98120.97;;;4.68;67.90
45327;BME280;31062;49.678;24.560;2023-03-20T00:29:38;98102.06;;;4.36;68.07
45327;BME280;31062;49.678;24.560;2023-03-20T00:32:25;98303.09;;;5.82;68.58
45327;BME280;31062;49.678;24.560;2023-03-20T00:35:26;98310.09;;;5.83;68.75
45327;BME280;31062;49.678;24.560;2023-03-20T00:38:12;98220.63;;;5.25;68.59
45327;BME280;31062;49.678;24.560;2023-03-20T00:40:58;98311.97;;;5.88;68.42
45327;BME280;31062;49.678;24.560;2023-03-20T00:43:47;98288.78;;;5.76;68.40
45327;BME280;31062;49.678;24.560;2023-03-20T00:46:37;98327.00;;;5.87;68.12
45327;BME280;31062;49.678;24.560;2023-03-20T00:49:26;98257.81;;;5.55;67.94
45327;BME280;31062;49.678;24.560;2023-03-20T00:52:12;98188.81;;;5.09;67.59
45327;BME280;31062;49.678;24.560;2023-03-20T00:54:58;98102.19;;;4.51;67.61
45327;BME280;31062;49.678;24.560;2023-03-20T00:57:50;98097.97;;;4.50;67.59
45327;BME280;31062;49.678;24.560;2023-03-20T01:00:39;98290.84;;;5.83;67.45
45327;BME280;31062;49.678;24.560;2023-03-20T01:03:25;98128.69;;;4.70;67.64
45327;BME280;31062;49.678;24.560;2023-03-20T01:06:11;98249.78;;;5.57;67.60
45327;BME280;31062;49.678;24.560;2023-03-20T01:08:57;98283.66;;;5.80;67.49
45327;BME280;31062;49.678;24.560;2023-03-20T01:11:43;98287.66;;;5.79;67.37
45327;BME280;31062;49.678;24.560;2023-03-20T01:14:30;98276.66;;;5.71;67.39
45327;BME280;31062;49.678;24.560;2023-03-20T01:17:20;98284.34;;;5.73;67.82
45327;BME280;31062;49.678;24.560;2023-03-20T01:20:28;98117.97;;;4.59;67.93
45327;BME280;31062;49.678;24.560;2023-03-20T01:23:14;98099.50;;;4.38;67.97
45327;BME280;31062;49.678;24.560;2023-03-20T01:26:00;98270.97;;;5.49;68.21
45327;BME280;31062;49.678;24.560;2023-03-20T01:28:46;98268.34;;;5.36;68.85
45327;BME280;31062;49.678;24.560;2023-03-20T01:31:31;98267.56;;;5.27;69.08
45327;BME280;31062;49.678;24.560;2023-03-20T01:34:18;98277.00;;;5.40;69.22
45327;BME280;31062;49.678;24.560;2023-03-20T01:37:10;98276.25;;;5.39;68.92
45327;BME280;31062;49.678;24.560;2023-03-20T01:39:57;98265.78;;;5.38;69.39
45327;BME280;31062;49.678;24.560;2023-03-20T01:42:44;98107.81;;;4.25;69.40
45327;BME280;31062;49.678;24.560;2023-03-20T01:45:33;98242.91;;;5.14;69.64
45327;BME280;31062;49.678;24.560;2023-03-20T01:48:22;98270.91;;;5.33;69.47
45327;BME280;31062;49.678;24.560;2023-03-20T01:51:09;98263.53;;;5.28;69.84
45327;BME280;31062;49.678;24.560;2023-03-20T01:54:05;98245.25;;;5.10;69.40
45327;BME280;31062;49.678;24.560;2023-03-20T01:57:14;98088.28;;;4.08;69.82
45327;BME280;31062;49.678;24.560;2023-03-20T02:00:14;98234.94;;;5.03;69.73
45327;BME280;31062;49.678;24.560;2023-03-20T02:03:00;98256.56;;;5.07;69.54
45327;BME280;31062;49.678;24.560;2023-03-20T02:06:07;98249.50;;;5.11;68.51
45327;BME280;31062;49.678;24.560;2023-03-20T02:09:12;98272.59;;;5.16;68.59
45327;BME280;31062;49.678;24.560;2023-03-20T02:12:01;98261.75;;;5.10;68.58
45327;BME280;31062;49.678;24.560;2023-03-20T02:14:48;98070.06;;;3.77;68.88
45327;BME280;31062;49.678;24.560;2023-03-20T02:17:41;98281.06;;;4.97;69.00
45327;BME280;31062;49.678;24.560;2023-03-20T02:27:22;98254.72;;;4.81;69.84
45327;BME280;31062;49.678;24.560;2023-03-20T02:30:54;98264.75;;;4.78;70.08
45327;BME280;31062;49.678;24.560;2023-03-20T02:49:37;98256.22;;;4.48;70.25
45327;BME280;31062;49.678;24.560;2023-03-20T02:52:34;98250.25;;;4.36;70.40
45327;BME280;31062;49.678;24.560;2023-03-20T02:58:50;98053.63;;;2.96;69.64
45327;BME280;31062;49.678;24.560;2023-03-20T03:01:42;98241.25;;;4.15;69.97
45327;BME280;31062;49.678;24.560;2023-03-20T03:04:35;98225.28;;;3.93;69.87
45327;BME280;31062;49.678;24.560;2023-03-20T03:07:24;98242.13;;;3.97;70.30
45327;BME280;31062;49.678;24.560;2023-03-20T03:10:18;98207.38;;;3.65;70.61
45327;BME280;31062;49.678;24.560;2023-03-20T03:13:11;98245.00;;;3.91;70.95
45327;BME280;31062;49.678;24.560;2023-03-20T03:16:05;98263.69;;;3.93;71.38
45327;BME280;31062;49.678;24.560;2023-03-20T03:19:08;98190.94;;;3.65;71.30
45327;BME280;31062;49.678;24.560;2023-03-20T03:21:57;98227.16;;;3.98;70.81
45327;BME280;31062;49.678;24.560;2023-03-20T03:24:45;98032.56;;;2.64;71.01
45327;BME280;31062;49.678;24.560;2023-03-20T03:27:47;98224.81;;;4.02;71.02
45327;BME280;31062;49.678;24.560;2023-03-20T03:30:37;98199.53;;;3.83;71.09
45327;BME280;31062;49.678;24.560;2023-03-20T03:33:27;98237.81;;;4.01;71.33
45327;BME280;31062;49.678;24.560;2023-03-20T03:39:38;98072.78;;;2.96;70.34
45327;BME280;31062;49.678;24.560;2023-03-20T03:42:45;98063.72;;;2.87;70.03
45327;BME280;31062;49.678;24.560;2023-03-20T03:45:38;98228.66;;;3.99;70.00
45327;BME280;31062;49.678;24.560;2023-03-20T03:48:34;98181.84;;;3.70;70.17
45327;BME280;31062;49.678;24.560;2023-03-20T03:51:24;98227.22;;;4.05;70.26
45327;BME280;31062;49.678;24.560;2023-03-20T03:54:39;98177.34;;;3.60;70.28
45327;BME280;31062;49.678;24.560;2023-03-20T03:57:49;98181.84;;;3.70;70.27
45327;BME280;31062;49.678;24.560;2023-03-20T04:00:40;98232.00;;;4.05;69.80
45327;BME280;31062;49.678;24.560;2023-03-20T04:03:30;98230.53;;;4.04;69.89
45327;BME280;31062;49.678;24.560;2023-03-20T04:06:19;98070.91;;;2.91;69.11
45327;BME280;31062;49.678;24.560;2023-03-20T04:09:08;98089.00;;;3.07;69.37
45327;BME280;31062;49.678;24.560;2023-03-20T04:11:53;98227.34;;;4.00;69.07
45327;BME280;31062;49.678;24.560;2023-03-20T04:14:38;98026.28;;;2.56;69.23
45327;BME280;31062;49.678;24.560;2023-03-20T04:17:25;98224.44;;;3.85;69.33
45327;BME280;31062;49.678;24.560;2023-03-20T04:20:11;98218.13;;;3.77;69.35
45327;BME280;31062;49.678;24.560;2023-03-20T04:22:57;98209.38;;;3.52;68.90
45327;BME280;31062;49.678;24.560;2023-03-20T04:25:44;98239.13;;;3.61;68.73
45327;BME280;31062;49.678;24.560;2023-03-20T04:28:29;98185.56;;;3.47;68.90
45327;BME280;31062;49.678;24.560;2023-03-20T04:31:34;98208.97;;;3.61;68.94
45327;BME280;31062;49.678;24.560;2023-03-20T04:34:48;98193.03;;;3.59;69.18
45327;BME280;31062;49.678;24.560;2023-03-20T04:37:54;98246.38;;;3.85;69.34
45327;BME280;31062;49.678;24.560;2023-03-20T04:40:40;98254.38;;;3.83;69.02
45327;BME280;31062;49.678;24.560;2023-03-20T04:43:26;98230.34;;;3.89;68.50
45327;BME280;31062;49.678;24.560;2023-03-20T04:46:11;98231.81;;;3.90;68.52
45327;BME280;31062;49.678;24.560;2023-03-20T04:48:58;98232.78;;;3.92;69.29
45327;BME280;31062;49.678;24.560;2023-03-20T04:51:46;98031.31;;;2.52;69.49
45327;BME280;31062;49.678;24.560;2023-03-20T04:54:36;98053.22;;;2.78;69.82
45327;BME280;31062;49.678;24.560;2023-03-20T04:57:21;98224.31;;;4.03;70.16
45327;BME280;31062;49.678;24.560;2023-03-20T05:00:11;98221.34;;;4.01;70.31
45327;BME280;31062;49.678;24.560;2023-03-20T05:02:57;98239.38;;;4.10;70.32
45327;BME280;31062;49.678;24.560;2023-03-20T05:05:42;98239.03;;;4.14;69.77
45327;BME280;31062;49.678;24.560;2023-03-20T05:08:28;98248.88;;;4.09;70.25
45327;BME280;31062;49.678;24.560;2023-03-20T05:11:17;98036.47;;;2.82;70.16
45327;BME280;31062;49.678;24.560;2023-03-20T05:14:27;98240.41;;;4.20;70.54
45327;BME280;31062;49.678;24.560;2023-03-20T05:17:46;98206.44;;;4.10;70.43
45327;BME280;31062;49.678;24.560;2023-03-20T05:20:49;98239.22;;;4.29;70.33
45327;BME280;31062;49.678;24.560;2023-03-20T05:23:52;98221.44;;;4.09;70.25
45327;BME280;31062;49.678;24.560;2023-03-20T05:26:47;98226.47;;;4.18;70.67
45327;BME280;31062;49.678;24.560;2023-03-20T05:29:32;98054.66;;;2.93;70.56
45327;BME280;31062;49.678;24.560;2023-03-20T05:32:37;98230.28;;;4.15;70.74
45327;BME280;31062;49.678;24.560;2023-03-20T05:35:28;98235.44;;;4.19;71.12
45327;BME280;31062;49.678;24.560;2023-03-20T05:38:32;98077.06;;;3.04;71.26
45327;BME280;31062;49.678;24.560;2023-03-20T05:41:33;98242.78;;;4.24;71.07
45327;BME280;31062;49.678;24.560;2023-03-20T05:44:38;98210.38;;;4.01;71.02
45327;BME280;31062;49.678;24.560;2023-03-20T05:47:44;98117.63;;;3.32;71.12
45327;BME280;31062;49.678;24.560;2023-03-20T05:50:58;98041.81;;;2.87;70.99
45327;BME280;31062;49.678;24.560;2023-03-20T05:53:55;98250.50;;;4.25;71.46
45327;BME280;31062;49.678;24.560;2023-03-20T05:56:50;98249.78;;;4.25;71.49
45327;BME280;31062;49.678;24.560;2023-03-20T05:59:45;98246.09;;;4.22;71.81
45327;BME280;31062;49.678;24.560;2023-03-20T06:02:50;98028.97;;;2.69;71.85
45327;BME280;31062;49.678;24.560;2023-03-20T06:05:55;98064.69;;;2.90;71.80
45327;BME280;31062;49.678;24.560;2023-03-20T06:08:41;98264.75;;;4.24;72.29
45327;BME280;31062;49.678;24.560;2023-03-20T06:11:27;98240.84;;;4.11;72.22
45327;BME280;31062;49.678;24.560;2023-03-20T06:14:13;98062.56;;;2.96;71.93
45327;BME280;31062;49.678;24.560;2023-03-20T06:17:02;98301.25;;;4.32;72.01
45327;BME280;31062;49.678;24.560;2023-03-20T06:19:48;98265.25;;;4.35;72.40
45327;BME280;31062;49.678;24.560;2023-03-20T06:22:33;98255.34;;;4.32;72.46
45327;BME280;31062;49.678;24.560;2023-03-20T06:25:19;98230.59;;;4.11;72.56
45327;BME280;31062;49.678;24.560;2023-03-20T06:28:06;98253.75;;;4.37;72.79
45327;BME280;31062;49.678;24.560;2023-03-20T06:30:52;98237.19;;;4.29;73.60
45327;BME280;31062;49.678;24.560;2023-03-20T06:33:41;98258.31;;;4.34;72.92
45327;BME280;31062;49.678;24.560;2023-03-20T06:36:29;98098.94;;;3.44;73.48
45327;BME280;31062;49.678;24.560;2023-03-20T06:39:23;98250.16;;;4.63;73.55
45327;BME280;31062;49.678;24.560;2023-03-20T06:42:12;98073.50;;;3.56;73.04
45327;BME280;31062;49.678;24.560;2023-03-20T06:45:05;98274.69;;;5.02;72.61
45327;BME280;31062;49.678;24.560;2023-03-20T06:48:10;98265.56;;;5.07;72.71
45327;BME280;31062;49.678;24.560;2023-03-20T06:50:57;98279.97;;;5.21;72.32
45327;BME280;31062;49.678;24.560;2023-03-20T06:53:52;98206.34;;;4.78;71.94
45327;BME280;31062;49.678;24.560;2023-03-20T06:56:43;98270.38;;;5.14;71.84
45327;BME280;31062;49.678;24.560;2023-03-20T06:59:29;98120.94;;;4.19;72.07
45327;BME280;31062;49.678;24.560;2023-03-20T07:02:16;98259.00;;;5.10;72.21
45327;BME280;31062;49.678;24.560;2023-03-20T07:05:02;98065.03;;;3.88;72.49
45327;BME280;31062;49.678;24.560;2023-03-20T07:07:49;98167.78;;;4.63;72.46
45327;BME280;31062;49.678;24.560;2023-03-20T07:10:35;98272.25;;;5.19;72.42
45327;BME280;31062;49.678;24.560;2023-03-20T07:13:35;98295.56;;;5.47;72.67
45327;BME280;31062;49.678;24.560;2023-03-20T07:17:32;98284.94;;;5.51;72.32
45327;BME280;31062;49.678;24.560;2023-03-20T07:20:51;98090.97;;;4.21;71.66
45327;BME280;31062;49.678;24.560;2023-03-20T07:24:01;98279.97;;;5.49;72.05
45327;BME280;31062;49.678;24.560;2023-03-20T07:26:54;98261.38;;;5.34;72.06
45327;BME280;31062;49.678;24.560;2023-03-20T07:29:48;98100.72;;;4.30;72.77
45327;BME280;31062;49.678;24.560;2023-03-20T07:32:36;98263.84;;;5.46;72.96
45327;BME280;31062;49.678;24.560;2023-03-20T07:35:22;98239.78;;;5.39;73.33
45327;BME280;31062;49.678;24.560;2023-03-20T07:38:08;98247.72;;;5.50;72.98
45327;BME280;31062;49.678;24.560;2023-03-20T07:41:03;98247.22;;;5.59;72.71
45327;BME280;31062;49.678;24.560;2023-03-20T07:43:51;98257.19;;;5.69;73.23
45327;BME280;31062;49.678;24.560;2023-03-20T07:46:55;98267.06;;;5.93;73.21
45327;BME280;31062;49.678;24.560;2023-03-20T07:49:41;98247.44;;;5.97;72.57
45327;BME280;31062;49.678;24.560;2023-03-20T07:52:27;98259.25;;;6.20;72.47
45327;BME280;31062;49.678;24.560;2023-03-20T07:55:13;98080.59;;;5.12;71.83
45327;BME280;31062;49.678;24.560;2023-03-20T07:58:03;98263.75;;;6.46;72.25
45327;BME280;31062;49.678;24.560;2023-03-20T08:00:48;98216.91;;;6.31;72.26
45327;BME280;31062;49.678;24.560;2023-03-20T08:03:34;98283.66;;;6.67;71.45
45327;BME280;31062;49.678;24.560;2023-03-20T08:06:19;98259.41;;;6.73;71.45
45327;BME280;31062;49.678;24.560;2023-03-20T08:09:05;98249.13;;;6.66;71.27
45327;BME280;31062;49.678;24.560;2023-03-20T08:11:51;98257.56;;;6.76;71.21
45327;BME280;31062;49.678;24.560;2023-03-20T08:14:37;98202.09;;;6.64;71.35
45327;BME280;31062;49.678;24.560;2023-03-20T08:17:24;98262.00;;;7.17;71.32
45327;BME280;31062;49.678;24.560;2023-03-20T08:20:11;98223.97;;;7.00;70.63
45327;BME280;31062;49.678;24.560;2023-03-20T08:22:58;98253.88;;;7.34;70.73
45327;BME280;31062;49.678;24.560;2023-03-20T08:25:48;98253.50;;;7.45;71.13
45327;BME280;31062;49.678;24.560;2023-03-20T08:28:34;98263.09;;;7.44;69.97
45327;BME280;31062;49.678;24.560;2023-03-20T08:31:32;98266.69;;;7.69;68.93
45327;BME280;31062;49.678;24.560;2023-03-20T08:34:17;98086.03;;;6.60;69.58
45327;BME280;31062;49.678;24.560;2023-03-20T08:37:03;98266.28;;;7.96;69.72
45327;BME280;31062;49.678;24.560;2023-03-20T08:39:49;98086.41;;;6.72;68.78
45327;BME280;31062;49.678;24.560;2023-03-20T08:42:34;98274.66;;;8.13;68.34
45327;BME280;31062;49.678;24.560;2023-03-20T08:45:21;98265.81;;;8.22;68.24
45327;BME280;31062;49.678;24.560;2023-03-20T08:48:10;98255.09;;;8.26;67.87
45327;BME280;31062;49.678;24.560;2023-03-20T08:50:55;98252.53;;;8.28;67.67
45327;BME280;31062;49.678;24.560;2023-03-20T08:53:41;98253.56;;;8.40;67.80
45327;BME280;31062;49.678;24.560;2023-03-20T08:56:29;98087.34;;;7.37;67.41
45327;BME280;31062;49.678;24.560;2023-03-20T08:59:15;98241.72;;;8.55;67.60
45327;BME280;31062;49.678;24.560;2023-03-20T09:02:00;98247.03;;;8.60;66.85
45327;BME280;31062;49.678;24.560;2023-03-20T09:04:46;98238.34;;;8.64;66.88
45327;BME280;31062;49.678;24.560;2023-03-20T09:07:31;98057.13;;;7.47;66.46
45327;BME280;31062;49.678;24.560;2023-03-20T09:10:17;98237.50;;;8.79;66.23
45327;BME280;31062;49.678;24.560;2023-03-20T09:13:03;98251.50;;;8.81;66.39
45327;BME280;31062;49.678;24.560;2023-03-20T09:16:09;98270.78;;;8.88;66.31
45327;BME280;31062;49.678;24.560;2023-03-20T09:18:57;98240.66;;;9.00;65.81
45327;BME280;31062;49.678;24.560;2023-03-20T09:21:43;98237.28;;;9.09;66.27
45327;BME280;31062;49.678;24.560;2023-03-20T09:24:29;98240.31;;;9.21;65.84
45327;BME280;31062;49.678;24.560;2023-03-20T09:27:16;98052.34;;;8.04;64.96
45327;BME280;31062;49.678;24.560;2023-03-20T09:30:02;98198.09;;;9.20;65.13
45327;BME280;31062;49.678;24.560;2023-03-20T09:32:49;98230.44;;;9.52;64.93
45327;BME280;31062;49.678;24.560;2023-03-20T09:35:35;98113.31;;;8.81;64.33
45327;BME280;31062;49.678;24.560;2023-03-20T09:38:21;98147.63;;;9.12;64.88
45327;BME280;31062;49.678;24.560;2023-03-20T09:41:16;98232.41;;;9.76;63.79
45327;BME280;31062;49.678;24.560;2023-03-20T09:50:30;98223.81;;;9.99;62.59
45327;BME280;31062;49.678;24.560;2023-03-20T09:53:33;98220.38;;;10.08;62.07
45327;BME280;31062;49.678;24.560;2023-03-20T09:56:24;98214.44;;;10.12;61.63
45327;BME280;31062;49.678;24.560;2023-03-20T09:59:13;98173.50;;;9.93;61.08
45327;BME280;31062;49.678;24.560;2023-03-20T10:02:24;98208.19;;;10.38;60.79
45327;BME280;31062;49.678;24.560;2023-03-20T10:05:21;98190.78;;;10.28;59.77
45327;BME280;31062;49.678;24.560;2023-03-20T10:08:13;98226.50;;;10.51;59.42
45327;BME280;31062;49.678;24.560;2023-03-20T10:18:01;98203.06;;;11.08;56.86
45327;BME280;31062;49.678;24.560;2023-03-20T10:21:04;98184.41;;;11.18;53.29
45327;BME280;31062;49.678;24.560;2023-03-20T10:24:00;98197.56;;;11.46;52.49
45327;BME280;31062;49.678;24.560;2023-03-20T10:26:51;98198.31;;;11.66;52.97
45327;BME280;31062;49.678;24.560;2023-03-20T10:29:55;98217.19;;;11.86;52.91
45327;BME280;31062;49.678;24.560;2023-03-20T10:32:53;98188.81;;;11.98;51.83
45327;BME280;31062;49.678;24.560;2023-03-20T10:41:32;98175.91;;;12.31;52.39
45327;BME280;31062;49.678;24.560;2023-03-20T10:44:32;98189.31;;;12.44;51.38
45327;BME280;31062;49.678;24.560;2023-03-20T10:47:22;98145.75;;;12.27;51.76
45327;BME280;31062;49.678;24.560;2023-03-20T10:50:22;98173.16;;;12.62;50.99
45327;BME280;31062;49.678;24.560;2023-03-20T10:53:20;98109.50;;;12.25;50.22
45327;BME280;31062;49.678;24.560;2023-03-20T10:56:19;98184.81;;;12.80;49.31
45327;BME280;31062;49.678;24.560;2023-03-20T10:59:23;98189.47;;;12.87;49.09
45327;BME280;31062;49.678;24.560;2023-03-20T11:02:12;98157.84;;;12.82;49.53
45327;BME280;31062;49.678;24.560;2023-03-20T11:04:59;97999.28;;;11.78;50.03
45327;BME280;31062;49.678;24.560;2023-03-20T11:07:46;98151.63;;;12.93;49.35
45327;BME280;31062;49.678;24.560;2023-03-20T11:10:36;98165.03;;;13.06;49.80
45327;BME280;31062;49.678;24.560;2023-03-20T11:13:26;98161.19;;;13.12;50.10
45327;BME280;31062;49.678;24.560;2023-03-20T11:16:17;98163.81;;;13.19;48.56
45327;BME280;31062;49.678;24.560;2023-03-20T11:19:06;98151.09;;;13.16;49.15
45327;BME280;31062;49.678;24.560;2023-03-20T11:21:56;98144.06;;;13.15;49.22
45327;BME280;31062;49.678;24.560;2023-03-20T11:24:46;98164.59;;;13.31;49.29
45327;BME280;31062;49.678;24.560;2023-03-20T11:27:36;98142.88;;;13.39;48.83
45327;BME280;31062;49.678;24.560;2023-03-20T11:30:21;98149.91;;;13.40;48.81
45327;BME280;31062;49.678;24.560;2023-03-20T11:33:07;98139.31;;;13.60;47.61
45327;BME280;31062;49.678;24.560;2023-03-20T11:35:55;98064.91;;;13.18;46.83
45327;BME280;31062;49.678;24.560;2023-03-20T11:38:45;97982.75;;;12.63;46.83
45327;BME280;31062;49.678;24.560;2023-03-20T11:41:31;98122.63;;;13.72;45.57
45327;BME280;31062;49.678;24.560;2023-03-20T11:44:33;98130.19;;;13.81;44.48
45327;BME280;31062;49.678;24.560;2023-03-20T11:47:24;97960.66;;;12.77;44.18
45327;BME280;31062;49.678;24.560;2023-03-20T11:53:24;98115.69;;;13.94;43.08
45327;BME280;31062;49.678;24.560;2023-03-20T12:01:52;98080.28;;;13.85;41.14
45327;BME280;31062;49.678;24.560;2023-03-20T12:04:38;98106.13;;;14.09;40.73
45327;BME280;31062;49.678;24.560;2023-03-20T12:07:34;98081.28;;;14.01;41.65
45327;BME280;31062;49.678;24.560;2023-03-20T12:10:21;98092.22;;;14.20;42.29
45327;BME280;31062;49.678;24.560;2023-03-20T12:13:15;98067.72;;;14.19;42.53
45327;BME280;31062;49.678;24.560;2023-03-20T12:16:09;98033.31;;;14.03;41.57
45327;BME280;31062;49.678;24.560;2023-03-20T12:19:00;98098.44;;;14.54;42.42
45327;BME280;31062;49.678;24.560;2023-03-20T12:22:13;98085.94;;;14.55;41.71
45327;BME280;31062;49.678;24.560;2023-03-20T12:25:08;97977.78;;;13.83;41.79
45327;BME280;31062;49.678;24.560;2023-03-20T12:28:05;98090.78;;;14.66;41.30
45327;BME280;31062;49.678;24.560;2023-03-20T12:34:03;98090.91;;;14.68;41.62
45327;BME280;31062;49.678;24.560;2023-03-20T12:36:51;98084.97;;;14.62;41.10
45327;BME280;31062;49.678;24.560;2023-03-20T12:39:51;97962.03;;;13.76;41.82
45327;BME280;31062;49.678;24.560;2023-03-20T12:43:13;98071.88;;;14.53;41.93
45327;BME280;31062;49.678;24.560;2023-03-20T12:53:01;98068.72;;;14.70;42.61
45327;BME280;31062;49.678;24.560;2023-03-20T13:03:16;98057.28;;;14.78;42.87
45327;BME280;31062;49.678;24.560;2023-03-20T13:14:26;97933.94;;;13.84;42.79
45327;BME280;31062;49.678;24.560;2023-03-20T13:20:29;98028.47;;;14.50;42.87
45327;BME280;31062;49.678;24.560;2023-03-20T13:23:23;98048.09;;;14.75;43.33
45327;BME280;31062;49.678;24.560;2023-03-20T13:29:18;97889.88;;;13.80;42.86
45327;BME280;31062;49.678;24.560;2023-03-20T13:35:45;98029.38;;;14.89;41.86
45327;BME280;31062;49.678;24.560;2023-03-20T13:38:41;98010.81;;;14.82;40.44
45327;BME280;31062;49.678;24.560;2023-03-20T13:41:30;98023.53;;;14.85;40.93
45327;BME280;31062;49.678;24.560;2023-03-20T13:44:18;97857.63;;;13.77;41.52
45327;BME280;31062;49.678;24.560;2023-03-20T13:47:11;98018.44;;;14.93;41.94
45327;BME280;31062;49.678;24.560;2023-03-20T13:51:18;98017.19;;;14.96;41.44
45327;BME280;31062;49.678;24.560;2023-03-20T13:59:38;98020.34;;;15.02;42.06
45327;BME280;31062;49.678;24.560;2023-03-20T14:05:20;98036.09;;;15.09;41.09
45327;BME280;31062;49.678;24.560;2023-03-20T14:08:20;98009.63;;;15.10;41.40
45327;BME280;31062;49.678;24.560;2023-03-20T14:14:05;98008.19;;;15.09;40.43
45327;BME280;31062;49.678;24.560;2023-03-20T14:19:54;97938.22;;;14.57;41.42
45327;BME280;31062;49.678;24.560;2023-03-20T14:22:40;97868.13;;;14.02;41.13
45327;BME280;31062;49.678;24.560;2023-03-20T14:25:33;97999.72;;;14.96;41.63
45327;BME280;31062;49.678;24.560;2023-03-20T14:28:27;97840.91;;;13.89;41.98
45327;BME280;31062;49.678;24.560;2023-03-20T14:31:28;97998.91;;;14.93;41.98
45327;BME280;31062;49.678;24.560;2023-03-20T14:34:22;98010.06;;;14.93;41.04
45327;BME280;31062;49.678;24.560;2023-03-20T14:40:32;98007.75;;;14.90;41.22
45327;BME280;31062;49.678;24.560;2023-03-20T14:47:04;97854.25;;;13.79;41.61
45327;BME280;31062;49.678;24.560;2023-03-20T14:55:33;97844.56;;;13.68;40.99
45327;BME280;31062;49.678;24.560;2023-03-20T14:58:56;98000.78;;;14.77;42.00
45327;BME280;31062;49.678;24.560;2023-03-20T15:04:39;97989.38;;;14.73;41.57
45327;BME280;31062;49.678;24.560;2023-03-20T15:07:28;97999.06;;;14.72;41.44
45327;BME280;31062;49.678;24.560;2023-03-20T15:10:15;97941.19;;;14.36;42.02
45327;BME280;31062;49.678;24.560;2023-03-20T15:13:05;97973.66;;;14.43;42.48
45327;BME280;31062;49.678;24.560;2023-03-20T15:15:54;97949.88;;;14.30;42.51
45327;BME280;31062;49.678;24.560;2023-03-20T15:18:48;98000.66;;;14.75;41.82
45327;BME280;31062;49.678;24.560;2023-03-20T15:21:37;98004.91;;;14.76;41.61
45327;BME280;31062;49.678;24.560;2023-03-20T15:24:27;97992.06;;;14.71;41.53
45327;BME280;31062;49.678;24.560;2023-03-20T15:27:13;97954.50;;;14.25;42.64
45327;BME280;31062;49.678;24.560;2023-03-20T15:29:59;97937.06;;;14.25;41.39
45327;BME280;31062;49.678;24.560;2023-03-20T15:32:53;97944.69;;;14.24;41.95
45327;BME280;31062;49.678;24.560;2023-03-20T15:35:39;98005.41;;;14.61;42.17
45327;BME280;31062;49.678;24.560;2023-03-20T15:38:31;97838.28;;;13.44;41.95
45327;BME280;31062;49.678;24.560;2023-03-20T15:41:30;98028.94;;;14.58;42.16
45327;BME280;31062;49.678;24.560;2023-03-20T15:44:24;97985.06;;;14.47;42.37
45327;BME280;31062;49.678;24.560;2023-03-20T15:47:13;97842.28;;;13.41;42.46
45327;BME280;31062;49.678;24.560;2023-03-20T15:50:01;97963.75;;;14.16;42.63
45327;BME280;31062;49.678;24.560;2023-03-20T15:52:50;97938.91;;;13.97;43.25
45327;BME280;31062;49.678;24.560;2023-03-20T15:55:38;97947.88;;;14.07;42.93
45327;BME280;31062;49.678;24.560;2023-03-20T15:58:24;97918.91;;;13.77;43.05
45327;BME280;31062;49.678;24.560;2023-03-20T16:01:19;98006.91;;;14.39;42.82
45327;BME280;31062;49.678;24.560;2023-03-20T16:04:06;97966.03;;;13.97;43.14
45327;BME280;31062;49.678;24.560;2023-03-20T16:06:56;97986.16;;;14.18;43.35
45327;BME280;31062;49.678;24.560;2023-03-20T16:09:43;97852.81;;;13.31;43.39
45327;BME280;31062;49.678;24.560;2023-03-20T16:12:29;97985.78;;;14.12;43.25
45327;BME280;31062;49.678;24.560;2023-03-20T16:15:18;97864.91;;;13.24;43.37
45327;BME280;31062;49.678;24.560;2023-03-20T16:18:04;98000.09;;;14.18;44.03
45327;BME280;31062;49.678;24.560;2023-03-20T16:21:00;97994.78;;;14.11;44.23
45327;BME280;31062;49.678;24.560;2023-03-20T16:23:51;97884.50;;;13.26;43.35
45327;BME280;31062;49.678;24.560;2023-03-20T16:26:41;98007.72;;;14.06;43.55
45327;BME280;31062;49.678;24.560;2023-03-20T16:29:28;98053.06;;;14.18;44.14
45327;BME280;31062;49.678;24.560;2023-03-20T16:35:16;98044.47;;;14.14;44.92
45327;BME280;31062;49.678;24.560;2023-03-20T16:38:28;97907.25;;;13.23;44.85
45327;BME280;31062;49.678;24.560;2023-03-20T16:41:30;98052.31;;;14.06;44.74
45327;BME280;31062;49.678;24.560;2023-03-20T16:44:19;98007.59;;;13.81;44.07
45327;BME280;31062;49.678;24.560;2023-03-20T16:47:20;98036.44;;;13.97;44.21
45327;BME280;31062;49.678;24.560;2023-03-20T16:50:22;98011.22;;;13.72;44.58
45327;BME280;31062;49.678;24.560;2023-03-20T16:53:14;97903.28;;;12.93;45.35
45327;BME280;31062;49.678;24.560;2023-03-20T16:56:00;97875.63;;;12.62;46.22
45327;BME280;31062;49.678;24.560;2023-03-20T16:58:49;97826.75;;;12.26;46.75
45327;BME280;31062;49.678;24.560;2023-03-20T17:01:39;97899.09;;;12.71;46.88
45327;BME280;31062;49.678;24.560;2023-03-20T17:07:18;98054.06;;;13.67;48.31
45327;BME280;31062;49.678;24.560;2023-03-20T17:13:03;97904.41;;;12.45;48.31
45327;BME280;31062;49.678;24.560;2023-03-20T17:15:50;98049.66;;;13.40;48.67
45327;BME280;31062;49.678;24.560;2023-03-20T17:18:36;98012.06;;;12.97;48.98